CheckWX is a tool to help pilots better visualize weather data.  It is not intended as a substitute for an official pre-flight weather briefing.

07:14:52 UTC

LEGE TAF
Girona Airport
Girona, Spain
TAF LEGE 160500Z 1606/1706 VRB03KT 9999 FEW030 TX29/1613Z TN12/1606Z TEMPO 1612/1618 17010KT

Jun-16@
06:00 UTC

Jun-16 @ 06:00 UTC

Jun-17@
06:00 UTC

Jun-17 @ 06:00 UTC

TAF LEGE 160500Z 1606/1706 VRB03KT 9999 FEW030 TX29/1613Z TN12/1606Z
Wind
  • Variable at 3 KTS
Cloud Levels
  • Few at 3,000' AGL

Jun-16@
12:00 UTC

Jun-16 @ 12:00 UTC

Jun-16@
18:00 UTC

Jun-16 @ 18:00 UTC

TEMPO 1612/1618 17010KT

Temporary

Temporary Changes expected for less than half the time period

Wind
  • 170° at 10 KTS